createdAt,value
2024-02-09T00:00:33.536Z,96762.03
2024-02-09T00:03:02.015Z,96761.30
2024-02-09T00:05:32.245Z,96758.16
2024-02-09T00:08:06.711Z,96758.48
2024-02-09T00:10:38.399Z,96757.67
2024-02-09T00:13:06.523Z,96753.27
2024-02-09T00:15:34.926Z,96759.14
2024-02-09T00:18:05.002Z,96759.57
2024-02-09T00:20:32.550Z,96754.73
2024-02-09T00:22:59.930Z,96754.41
2024-02-09T00:25:28.155Z,96742.36
2024-02-09T00:27:56.003Z,96740.66
2024-02-09T00:30:26.317Z,96737.89
2024-02-09T00:32:53.713Z,96733.85
2024-02-09T00:35:30.206Z,96741.83
2024-02-09T00:38:01.780Z,96734.63
2024-02-09T00:40:32.838Z,96732.87
2024-02-09T00:43:04.385Z,96734.24
2024-02-09T00:45:35.805Z,96737.27
2024-02-09T00:48:04.620Z,96738.98
2024-02-09T00:50:32.831Z,96740.54
2024-02-09T00:53:02.150Z,96740.81
2024-02-09T00:55:31.062Z,96743.93
2024-02-09T00:57:59.170Z,96739.08
2024-02-09T01:00:29.316Z,96731.56
2024-02-09T01:02:57.852Z,96728.55
2024-02-09T01:05:26.151Z,96725.58
2024-02-09T01:07:53.289Z,96720.92
2024-02-09T01:10:20.783Z,96719.42
2024-02-09T01:13:03.834Z,96720.15
2024-02-09T01:15:46.164Z,96716.70
2024-02-09T01:18:28.587Z,96710.32
2024-02-09T01:21:10.914Z,96706.11
2024-02-09T01:23:54.090Z,96706.24
2024-02-09T01:26:36.495Z,96714.30
2024-02-09T01:29:18.825Z,96704.53
2024-02-09T01:32:01.102Z,96706.73
2024-02-09T01:34:43.688Z,96711.63
2024-02-09T01:37:26.134Z,96703.25
2024-02-09T01:40:09.090Z,96703.62
2024-02-09T01:42:51.215Z,96694.50
2024-02-09T01:45:33.694Z,96695.23
2024-02-09T01:48:16.414Z,96689.93
2024-02-09T01:50:59.290Z,96690.55
2024-02-09T01:53:42.119Z,96692.40
2024-02-09T01:56:24.405Z,96688.27
2024-02-09T01:59:07.277Z,96687.27
2024-02-09T02:01:51.057Z,96687.70
2024-02-09T02:04:34.089Z,96690.08
2024-02-09T02:07:16.661Z,96687.95
2024-02-09T02:09:59.560Z,96685.84
2024-02-09T02:12:42.402Z,96684.06
2024-02-09T02:15:25.111Z,96682.30
2024-02-09T02:18:07.525Z,96672.98
2024-02-09T02:20:50.112Z,96673.22
2024-02-09T02:23:42.848Z,96669.89
2024-02-09T02:26:25.068Z,96667.65
2024-02-09T02:29:11.043Z,96666.63
2024-02-09T02:31:53.257Z,96663.08
2024-02-09T02:34:35.664Z,96666.13
2024-02-09T02:37:17.827Z,96663.09
2024-02-09T02:40:00.320Z,96661.58
2024-02-09T02:42:27.278Z,96657.52
2024-02-09T02:44:55.817Z,96666.79
2024-02-09T02:47:23.856Z,96661.83
2024-02-09T02:50:06.569Z,96658.77
2024-02-09T02:52:49.231Z,96650.89
2024-02-09T02:55:31.602Z,96640.77
2024-02-09T02:58:14.531Z,96648.12
2024-02-09T03:00:57.181Z,96646.90
2024-02-09T03:03:39.477Z,96646.30
2024-02-09T03:06:07.295Z,96645.39
2024-02-09T03:08:46.904Z,96643.02
2024-02-09T03:11:15.861Z,96645.38
2024-02-09T03:13:44.111Z,96644.17
2024-02-09T03:16:11.208Z,96646.63
2024-02-09T03:18:38.320Z,96647.68
2024-02-09T03:21:05.473Z,96642.97
2024-02-09T03:23:32.453Z,96640.38
2024-02-09T03:25:59.532Z,96642.51
2024-02-09T03:28:26.665Z,96642.67
2024-02-09T03:30:53.633Z,96644.96
2024-02-09T03:33:20.768Z,96646.42
2024-02-09T03:35:47.935Z,96648.28
2024-02-09T03:38:15.553Z,96646.37
2024-02-09T03:40:42.948Z,96638.28
2024-02-09T03:43:10.118Z,96633.94
2024-02-09T03:45:43.339Z,96633.60
2024-02-09T03:48:11.487Z,96633.23
2024-02-09T03:50:38.879Z,96636.65
2024-02-09T03:53:08.485Z,96634.41
2024-02-09T03:55:36.481Z,96635.95
2024-02-09T03:58:03.556Z,96639.86
2024-02-09T04:00:30.637Z,96638.64
2024-02-09T04:02:57.710Z,96642.52
2024-02-09T04:05:24.932Z,96644.01
2024-02-09T04:07:52.308Z,96649.27
2024-02-09T04:12:50.585Z,96638.15
2024-02-09T04:15:17.612Z,96634.33
2024-02-09T04:17:45.766Z,96633.41
2024-02-09T04:20:15.307Z,96627.84
2024-02-09T04:22:42.329Z,96628.10
2024-02-09T04:25:09.376Z,96624.82
2024-02-09T04:27:37.465Z,96624.50
2024-02-09T04:30:05.000Z,96628.10
2024-02-09T04:32:32.053Z,96625.75
2024-02-09T04:34:59.224Z,96623.55
2024-02-09T04:37:26.270Z,96624.75
2024-02-09T04:39:53.211Z,96624.53
2024-02-09T04:42:22.079Z,96621.77
2024-02-09T04:44:49.051Z,96622.80
2024-02-09T04:47:16.215Z,96622.06
2024-02-09T04:49:45.746Z,96624.97
2024-02-09T04:52:15.021Z,96630.00
2024-02-09T04:54:42.179Z,96626.38
2024-02-09T04:57:09.284Z,96625.13
2024-02-09T04:59:36.258Z,96623.94
2024-02-09T05:02:03.284Z,96619.87
2024-02-09T05:04:30.270Z,96614.86
2024-02-09T05:06:57.344Z,96614.93
2024-02-09T05:09:31.451Z,96612.51
2024-02-09T05:12:00.060Z,96608.96
2024-02-09T05:14:27.222Z,96605.98
2024-02-09T05:16:55.303Z,96605.23
2024-02-09T05:19:22.438Z,96598.92
2024-02-09T05:21:49.524Z,96600.73
2024-02-09T05:24:16.521Z,96599.30
2024-02-09T05:26:43.495Z,96605.03
2024-02-09T05:29:10.441Z,96609.81
2024-02-09T05:31:43.659Z,96606.51
2024-02-09T05:34:11.139Z,96601.80
2024-02-09T05:36:38.336Z,96600.86
2024-02-09T05:39:07.973Z,96597.40
2024-02-09T05:41:34.993Z,96599.11
2024-02-09T05:44:02.121Z,96598.52
2024-02-09T05:46:29.649Z,96599.92
2024-02-09T05:48:57.614Z,96596.58
2024-02-09T05:51:25.379Z,96589.20
2024-02-09T05:53:52.561Z,96591.80
2024-02-09T05:56:21.523Z,96591.12
2024-02-09T05:58:49.689Z,96593.64
2024-02-09T06:01:16.838Z,96597.80
2024-02-09T06:03:44.440Z,96594.99
2024-02-09T06:06:13.992Z,96591.48
2024-02-09T06:08:41.142Z,96593.15
2024-02-09T06:11:08.136Z,96592.34
2024-02-09T06:13:35.686Z,96597.63
2024-02-09T06:16:03.086Z,96596.21
2024-02-09T06:18:30.241Z,96600.98
2024-02-09T06:20:59.904Z,96606.90
2024-02-09T06:23:26.907Z,96606.25
2024-02-09T06:25:54.086Z,96604.54
2024-02-09T06:28:21.213Z,96607.88
2024-02-09T06:30:49.036Z,96610.93
2024-02-09T06:33:18.228Z,96610.98
2024-02-09T06:35:45.371Z,96612.75
2024-02-09T06:38:13.527Z,96613.23
2024-02-09T06:40:41.250Z,96618.13
2024-02-09T06:43:08.788Z,96621.85
2024-02-09T06:45:36.763Z,96618.92
2024-02-09T06:48:07.320Z,96619.34
2024-02-09T06:50:37.221Z,96619.60
2024-02-09T06:53:10.436Z,96618.73
2024-02-09T06:55:38.033Z,96625.11
2024-02-09T06:58:05.594Z,96625.20
2024-02-09T07:00:38.561Z,96621.13
2024-02-09T07:03:05.914Z,96622.13
2024-02-09T07:05:35.688Z,96625.46
2024-02-09T07:08:04.092Z,96626.34
2024-02-09T07:10:31.505Z,96624.84
2024-02-09T07:12:58.719Z,96626.89
2024-02-09T07:15:25.875Z,96629.14
2024-02-09T07:17:57.690Z,96624.86
2024-02-09T07:20:25.016Z,96628.42
2024-02-09T07:22:52.449Z,96630.75
2024-02-09T07:25:20.681Z,96635.06
2024-02-09T07:27:48.257Z,96631.11
2024-02-09T07:30:16.638Z,96636.98
2024-02-09T07:32:43.717Z,96639.05
2024-02-09T07:35:12.322Z,96636.73
2024-02-09T07:37:39.522Z,96642.44
2024-02-09T07:40:09.845Z,96642.52
2024-02-09T07:42:37.089Z,96648.54
2024-02-09T07:45:05.959Z,96653.85
2024-02-09T07:47:33.203Z,96652.48
2024-02-09T07:50:00.442Z,96651.92
2024-02-09T07:52:30.759Z,96653.92
2024-02-09T07:54:58.267Z,96651.88
2024-02-09T07:57:27.231Z,96654.97
2024-02-09T07:59:54.199Z,96655.95
2024-02-09T08:02:21.247Z,96655.77
2024-02-09T08:04:48.273Z,96658.21
2024-02-09T08:07:16.624Z,96655.29
2024-02-09T08:09:43.579Z,96647.38
2024-02-09T08:12:13.687Z,96647.70
2024-02-09T08:14:41.437Z,96643.95
2024-02-09T08:17:23.794Z,96643.44
2024-02-09T08:19:52.539Z,96648.48
2024-02-09T08:22:24.147Z,96649.07
2024-02-09T08:24:51.621Z,96652.52
2024-02-09T08:27:18.610Z,96648.75
2024-02-09T08:29:45.564Z,96647.91
2024-02-09T08:32:12.743Z,96649.92
2024-02-09T08:34:39.820Z,96653.41
2024-02-09T08:37:08.275Z,96652.34
2024-02-09T08:39:35.232Z,96651.45
2024-02-09T08:42:02.213Z,96651.27
2024-02-09T08:44:29.185Z,96653.41
2024-02-09T08:46:56.712Z,96646.21
2024-02-09T08:49:23.884Z,96638.80
2024-02-09T08:51:51.467Z,96641.52
2024-02-09T08:54:18.528Z,96638.23
2024-02-09T08:56:45.463Z,96638.16
2024-02-09T08:59:14.246Z,96630.15
2024-02-09T09:01:42.485Z,96631.56
2024-02-09T09:04:09.673Z,96632.16
2024-02-09T09:06:36.732Z,96624.68
2024-02-09T09:09:04.992Z,96623.52
2024-02-09T09:11:32.049Z,96625.58
2024-02-09T09:13:58.970Z,96624.27
2024-02-09T09:16:27.557Z,96622.63
2024-02-09T09:18:54.701Z,96622.91
2024-02-09T09:21:21.815Z,96624.17
2024-02-09T09:23:48.845Z,96625.30
2024-02-09T09:26:22.625Z,96625.42
2024-02-09T09:28:55.968Z,96624.45
2024-02-09T09:31:23.083Z,96624.94
2024-02-09T09:33:50.011Z,96632.73
2024-02-09T09:36:17.114Z,96633.48
2024-02-09T09:38:46.587Z,96629.85
2024-02-09T09:41:14.361Z,96620.86
2024-02-09T09:43:41.604Z,96617.95
2024-02-09T09:46:10.586Z,96612.45
2024-02-09T09:48:39.268Z,96608.33
2024-02-09T09:51:06.949Z,96613.58
2024-02-09T09:53:37.927Z,96607.40
2024-02-09T09:56:08.057Z,96609.27
2024-02-09T09:58:37.189Z,96605.80
2024-02-09T10:01:09.530Z,96606.73
2024-02-09T10:03:39.107Z,96607.27
2024-02-09T10:06:06.867Z,96605.05
2024-02-09T10:08:37.562Z,96604.08
2024-02-09T10:11:07.926Z,96602.88
2024-02-09T10:13:36.927Z,96596.50
2024-02-09T10:16:05.097Z,96591.40
2024-02-09T10:18:35.421Z,96590.96
2024-02-09T10:21:03.761Z,96590.23
2024-02-09T10:23:31.260Z,96587.71
2024-02-09T10:26:02.261Z,96586.89
2024-02-09T10:28:30.750Z,96579.05
2024-02-09T10:31:02.296Z,96567.73
2024-02-09T10:33:29.455Z,96565.53
2024-02-09T10:35:58.050Z,96566.18
2024-02-09T10:38:26.741Z,96565.23
2024-02-09T10:40:56.856Z,96559.71
2024-02-09T10:43:25.354Z,96559.73
2024-02-09T10:45:58.157Z,96554.59
2024-02-09T10:48:36.460Z,96551.83
2024-02-09T10:51:07.230Z,96546.83
2024-02-09T10:53:37.033Z,96548.19
2024-02-09T10:56:07.216Z,96548.57
2024-02-09T10:58:35.337Z,96547.83
2024-02-09T11:01:06.051Z,96544.30
2024-02-09T11:03:34.417Z,96550.92
2024-02-09T11:06:04.300Z,96543.44
2024-02-09T11:08:34.662Z,96539.23
2024-02-09T11:11:03.530Z,96536.86
2024-02-09T11:13:32.240Z,96534.17
2024-02-09T11:15:59.482Z,96527.86
2024-02-09T11:18:35.468Z,96527.80
2024-02-09T11:21:12.837Z,96526.92
2024-02-09T11:23:42.044Z,96529.84
2024-02-09T11:26:12.119Z,96529.79
2024-02-09T11:28:39.195Z,96524.06
2024-02-09T11:31:12.401Z,96521.96
2024-02-09T11:33:43.301Z,96516.48
2024-02-09T11:36:10.500Z,96511.61
2024-02-09T11:38:37.590Z,96513.01
2024-02-09T11:41:04.879Z,96507.70
2024-02-09T11:43:32.883Z,96501.75
2024-02-09T11:46:00.267Z,96499.90
2024-02-09T11:48:27.246Z,96503.35
2024-02-09T11:50:58.817Z,96497.63
2024-02-09T11:53:26.736Z,96489.15
2024-02-09T11:55:54.516Z,96485.58
2024-02-09T11:58:21.626Z,96485.08
2024-02-09T12:00:52.257Z,96484.23
2024-02-09T12:03:19.562Z,96488.77
2024-02-09T12:05:48.251Z,96482.61
2024-02-09T12:08:20.436Z,96478.13
2024-02-09T12:10:48.101Z,96481.11
2024-02-09T12:13:15.368Z,96484.11
2024-02-09T12:15:42.447Z,96485.33
2024-02-09T12:18:10.326Z,96488.20
2024-02-09T12:20:37.657Z,96493.35
2024-02-09T12:23:05.693Z,96490.33
2024-02-09T12:25:37.690Z,96491.92
2024-02-09T12:28:07.137Z,96492.52
2024-02-09T12:30:36.618Z,96492.87
2024-02-09T12:33:05.897Z,96490.25
2024-02-09T12:35:33.132Z,96495.52
2024-02-09T12:38:00.190Z,96499.27
2024-02-09T12:40:27.403Z,96500.95
2024-02-09T12:42:55.221Z,96497.73
2024-02-09T12:45:28.025Z,96493.56
2024-02-09T12:47:55.780Z,96499.55
2024-02-09T12:50:23.376Z,96497.80
2024-02-09T12:52:51.893Z,96495.22
2024-02-09T12:55:21.376Z,96492.75
2024-02-09T12:57:49.639Z,96491.22
2024-02-09T13:00:16.889Z,96495.98
2024-02-09T13:02:43.952Z,96496.79
2024-02-09T13:05:11.712Z,96498.85
2024-02-09T13:07:39.637Z,96492.57
2024-02-09T13:10:09.140Z,96489.52
2024-02-09T13:12:38.854Z,96491.34
2024-02-09T13:15:09.385Z,96485.79
2024-02-09T13:17:36.745Z,96479.39
2024-02-09T13:20:08.090Z,96478.31
2024-02-09T13:22:35.999Z,96482.46
2024-02-09T13:25:03.106Z,96485.10
2024-02-09T13:27:30.971Z,96489.52
2024-02-09T13:30:00.101Z,96490.65
2024-02-09T13:32:29.316Z,96487.87
2024-02-09T13:34:56.560Z,96487.20
2024-02-09T13:37:23.730Z,96485.98
2024-02-09T13:42:37.970Z,96491.03
2024-02-09T13:45:06.378Z,96488.36
2024-02-09T13:47:33.794Z,96495.10
2024-02-09T13:50:00.823Z,96492.22
2024-02-09T13:52:28.556Z,96492.52
2024-02-09T13:54:56.799Z,96492.00
2024-02-09T13:57:23.747Z,96495.29
2024-02-09T13:59:51.474Z,96492.44
2024-02-09T14:02:18.633Z,96496.90
2024-02-09T14:04:45.625Z,96494.98
2024-02-09T14:07:12.638Z,96491.72
2024-02-09T14:09:39.909Z,96493.11
2024-02-09T14:12:08.373Z,96494.88
2024-02-09T14:14:35.325Z,96488.48
2024-02-09T14:17:02.873Z,96490.23
2024-02-09T14:19:29.916Z,96488.08
2024-02-09T14:21:57.068Z,96484.30
2024-02-09T14:24:23.996Z,96482.70
2024-02-09T14:26:51.586Z,96486.61
2024-02-09T14:29:18.633Z,96487.02
2024-02-09T14:31:45.661Z,96488.52
2024-02-09T14:34:12.907Z,96479.73
2024-02-09T14:36:41.101Z,96480.01
2024-02-09T14:39:08.852Z,96473.05
2024-02-09T14:41:40.839Z,96472.18
2024-02-09T14:44:08.395Z,96476.08
2024-02-09T14:46:43.722Z,96467.59
2024-02-09T14:49:11.887Z,96472.89
2024-02-09T14:51:40.103Z,96470.77
2024-02-09T14:54:07.024Z,96465.32
2024-02-09T14:56:41.651Z,96468.92
2024-02-09T14:59:15.456Z,96469.16
2024-02-09T15:01:42.569Z,96469.14
2024-02-09T15:04:11.286Z,96471.93
2024-02-09T15:06:45.422Z,96476.48
2024-02-09T15:09:12.937Z,96471.91
2024-02-09T15:11:42.281Z,96469.25
2024-02-09T15:14:10.943Z,96472.13
2024-02-09T15:16:38.513Z,96471.41
2024-02-09T15:19:06.525Z,96470.02
2024-02-09T15:21:33.889Z,96465.95
2024-02-09T15:24:01.039Z,96461.95
2024-02-09T15:26:28.145Z,96462.49
2024-02-09T15:28:57.613Z,96468.66
2024-02-09T15:31:24.934Z,96471.30
2024-02-09T15:33:52.593Z,96474.19
2024-02-09T15:36:19.981Z,96471.92
2024-02-09T15:38:47.032Z,96470.63
2024-02-09T15:41:16.094Z,96467.58
2024-02-09T15:43:43.382Z,96465.58
2024-02-09T15:46:17.208Z,96469.75
2024-02-09T15:48:46.404Z,96467.88
2024-02-09T15:51:24.299Z,96465.48
2024-02-09T15:53:54.162Z,96459.64
2024-02-09T15:56:25.769Z,96460.02
2024-02-09T15:58:54.058Z,96462.80
2024-02-09T16:01:21.142Z,96463.88
2024-02-09T16:03:49.586Z,96462.96
2024-02-09T16:06:16.713Z,96469.00
2024-02-09T16:08:44.978Z,96471.58
2024-02-09T16:11:12.132Z,96474.09
2024-02-09T16:13:40.397Z,96479.48
2024-02-09T16:16:09.175Z,96475.54
2024-02-09T16:18:36.984Z,96472.83
2024-02-09T16:21:05.900Z,96474.15
2024-02-09T16:23:32.811Z,96475.93
2024-02-09T16:26:05.247Z,96476.55
2024-02-09T16:28:34.243Z,96475.32
2024-02-09T16:31:01.642Z,96476.73
2024-02-09T16:33:29.103Z,96484.62
2024-02-09T16:35:56.260Z,96488.94
2024-02-09T16:38:25.485Z,96496.64
2024-02-09T16:40:52.653Z,96494.54
2024-02-09T16:43:21.359Z,96499.69
2024-02-09T16:45:48.492Z,96505.58
2024-02-09T16:48:17.208Z,96504.77
2024-02-09T16:50:44.785Z,96507.02
2024-02-09T16:53:17.128Z,96504.02
2024-02-09T16:55:46.803Z,96505.30
2024-02-09T16:58:13.860Z,96499.59
2024-02-09T17:00:40.903Z,96495.04
2024-02-09T17:03:07.808Z,96503.16
2024-02-09T17:05:35.079Z,96507.19
2024-02-09T17:08:08.814Z,96505.79
2024-02-09T17:10:37.251Z,96505.02
2024-02-09T17:13:04.412Z,96507.23
2024-02-09T17:15:34.082Z,96506.83
2024-02-09T17:18:01.216Z,96505.09
2024-02-09T17:20:28.420Z,96505.25
2024-02-09T17:22:55.750Z,96505.44
2024-02-09T17:25:22.794Z,96504.25
2024-02-09T17:27:50.037Z,96509.79
2024-02-09T17:30:17.163Z,96511.36
2024-02-09T17:32:44.253Z,96511.90
2024-02-09T17:35:11.380Z,96512.19
2024-02-09T17:37:38.548Z,96513.23
2024-02-09T17:40:06.942Z,96509.23
2024-02-09T17:42:33.935Z,96504.52
2024-02-09T17:45:00.919Z,96498.89
2024-02-09T17:47:27.901Z,96499.58
2024-02-09T17:49:55.081Z,96497.51
2024-02-09T17:52:23.280Z,96492.36
2024-02-09T17:54:50.348Z,96490.55
2024-02-09T17:57:17.459Z,96490.60
2024-02-09T17:59:44.439Z,96495.20
2024-02-09T18:02:11.494Z,96493.65
2024-02-09T18:04:39.271Z,96493.05
2024-02-09T18:07:06.538Z,96492.48
2024-02-09T18:09:33.518Z,96493.55
2024-02-09T18:12:01.553Z,96494.70
2024-02-09T18:14:29.674Z,96494.21
2024-02-09T18:16:56.745Z,96494.46
2024-02-09T18:19:24.174Z,96497.79
2024-02-09T18:21:54.937Z,96500.95
2024-02-09T18:24:21.919Z,96506.32
2024-02-09T18:26:48.887Z,96507.48
2024-02-09T18:29:18.118Z,96507.61
2024-02-09T18:31:45.444Z,96504.91
2024-02-09T18:34:12.505Z,96501.90
2024-02-09T18:36:39.702Z,96496.58
2024-02-09T18:39:06.686Z,96493.98
2024-02-09T18:41:33.634Z,96496.30
2024-02-09T18:44:00.761Z,96497.31
2024-02-09T18:46:28.903Z,96492.81
2024-02-09T18:48:55.891Z,96496.57
2024-02-09T18:51:23.056Z,96493.29
2024-02-09T18:53:49.962Z,96497.14
2024-02-09T18:56:17.844Z,96493.17
2024-02-09T18:58:47.110Z,96493.33
2024-02-09T19:01:15.175Z,96489.61
2024-02-09T19:03:43.299Z,96485.91
2024-02-09T19:06:10.362Z,96484.98
2024-02-09T19:08:37.432Z,96488.33
2024-02-09T19:11:05.325Z,96485.34
2024-02-09T19:13:34.107Z,96483.93
2024-02-09T19:16:01.476Z,96484.99
2024-02-09T19:18:28.446Z,96486.33
2024-02-09T19:20:55.469Z,96481.76
2024-02-09T19:23:22.826Z,96479.73
2024-02-09T19:25:51.181Z,96479.54
2024-02-09T19:28:19.111Z,96483.84
2024-02-09T19:30:46.875Z,96482.35
2024-02-09T19:33:15.243Z,96478.38
2024-02-09T19:35:43.106Z,96473.22
2024-02-09T19:38:10.030Z,96471.36
2024-02-09T19:40:37.604Z,96473.27
2024-02-09T19:43:04.755Z,96471.43
2024-02-09T19:45:32.683Z,96476.69
2024-02-09T19:48:01.466Z,96480.20
2024-02-09T19:50:28.511Z,96479.80
2024-02-09T19:52:55.611Z,96475.95
2024-02-09T19:55:22.732Z,96477.23
2024-02-09T19:57:50.321Z,96474.30
2024-02-09T20:00:17.789Z,96477.23
2024-02-09T20:02:48.263Z,96480.00
2024-02-09T20:05:21.313Z,96485.40
2024-02-09T20:07:48.424Z,96489.09
2024-02-09T20:10:15.494Z,96490.20
2024-02-09T20:12:42.910Z,96488.05
2024-02-09T20:15:17.492Z,96483.70
2024-02-09T20:17:45.947Z,96481.52
2024-02-09T20:20:18.907Z,96485.73
2024-02-09T20:22:49.914Z,96486.39
2024-02-09T20:25:17.605Z,96486.75
2024-02-09T20:27:45.642Z,96486.05
2024-02-09T20:30:13.975Z,96487.13
2024-02-09T20:35:27.428Z,96477.20
2024-02-09T20:37:55.677Z,96476.36
2024-02-09T20:40:23.207Z,96474.92
2024-02-09T20:42:52.634Z,96478.23
2024-02-09T20:45:20.228Z,96478.50
2024-02-09T20:47:49.222Z,96479.46
2024-02-09T20:50:18.149Z,96487.52
2024-02-09T20:52:50.143Z,96485.53
2024-02-09T20:55:20.813Z,96485.90
2024-02-09T20:57:50.326Z,96490.25
2024-02-09T21:00:20.259Z,96490.96
2024-02-09T21:02:49.831Z,96489.45
2024-02-09T21:05:20.765Z,96483.64
2024-02-09T21:07:49.472Z,96478.98
2024-02-09T21:10:17.646Z,96479.55
2024-02-09T21:12:47.273Z,96482.63
2024-02-09T21:15:15.362Z,96482.08
2024-02-09T21:17:44.901Z,96486.45
2024-02-09T21:20:13.642Z,96489.09
2024-02-09T21:22:43.745Z,96488.14
2024-02-09T21:25:11.743Z,96482.21
2024-02-09T21:27:39.316Z,96478.16
2024-02-09T21:30:10.252Z,96476.20
2024-02-09T21:32:40.077Z,96478.16
2024-02-09T21:35:08.304Z,96468.45
2024-02-09T21:37:35.245Z,96470.11
2024-02-09T21:40:02.949Z,96470.95
2024-02-09T21:42:30.896Z,96469.05
2024-02-09T21:45:01.157Z,96469.75
2024-02-09T21:47:31.396Z,96473.41
2024-02-09T21:50:01.471Z,96473.48
2024-02-09T21:52:29.189Z,96468.15
2024-02-09T21:54:56.409Z,96467.59
2024-02-09T21:57:23.336Z,96466.17
2024-02-09T21:59:50.251Z,96463.45
2024-02-09T22:02:20.697Z,96466.30
2024-02-09T22:04:52.996Z,96473.66
2024-02-09T22:07:20.425Z,96473.17
2024-02-09T22:09:47.575Z,96473.60
2024-02-09T22:12:27.372Z,96475.70
2024-02-09T22:14:57.102Z,96477.04
2024-02-09T22:17:25.649Z,96480.44
2024-02-09T22:19:54.774Z,96481.35
2024-02-09T22:22:22.490Z,96480.27
2024-02-09T22:24:49.850Z,96480.08
2024-02-09T22:27:16.909Z,96479.66
2024-02-09T22:29:47.338Z,96475.58
2024-02-09T22:32:15.106Z,96477.67
2024-02-09T22:34:44.893Z,96473.35
2024-02-09T22:37:13.325Z,96475.18
2024-02-09T22:39:43.327Z,96472.16
2024-02-09T22:42:11.717Z,96475.06
2024-02-09T22:44:39.426Z,96469.30
2024-02-09T22:47:07.694Z,96464.80
2024-02-09T22:49:35.045Z,96462.27
2024-02-09T22:52:02.719Z,96460.48
2024-02-09T22:54:30.114Z,96457.38
2024-02-09T22:56:57.119Z,96454.90
2024-02-09T22:59:24.186Z,96456.55
2024-02-09T23:01:53.983Z,96457.04
2024-02-09T23:04:25.212Z,96453.63
2024-02-09T23:06:52.898Z,96452.21
2024-02-09T23:09:20.427Z,96454.69
2024-02-09T23:11:48.169Z,96454.08
2024-02-09T23:14:19.057Z,96455.21
2024-02-09T23:16:49.614Z,96451.15
2024-02-09T23:19:22.082Z,96454.45
2024-02-09T23:21:51.591Z,96455.69
2024-02-09T23:24:26.966Z,96454.48
2024-02-09T23:26:55.927Z,96454.06
2024-02-09T23:29:25.799Z,96454.89
2024-02-09T23:31:57.130Z,96453.21
2024-02-09T23:34:24.532Z,96454.18
2024-02-09T23:36:54.163Z,96448.92
2024-02-09T23:39:23.056Z,96452.42
2024-02-09T23:41:50.499Z,96449.33
2024-02-09T23:44:24.705Z,96454.09
2024-02-09T23:46:52.100Z,96454.15
2024-02-09T23:49:19.829Z,96447.98
2024-02-09T23:51:50.287Z,96449.63
2024-02-09T23:54:18.326Z,96452.98
2024-02-09T23:56:46.280Z,96449.70
2024-02-09T23:59:14.052Z,96456.59
